sensor_id;sensor_type;location;lat;lon;timestamp;pressure;altitude;pressure_sealevel;temperature;humidity
41862;BME280;27537;57.134;-2.136;2023-05-20T00:01:50;102316.91;;;13.28;100.00
41862;BME280;27537;57.134;-2.136;2023-05-20T00:04:17;102346.06;;;13.58;100.00
41862;BME280;27537;57.134;-2.136;2023-05-20T00:06:44;102344.56;;;13.46;100.00
41862;BME280;27537;57.134;-2.136;2023-05-20T00:09:11;102344.50;;;13.50;100.00
41862;BME280;27537;57.134;-2.136;2023-05-20T00:11:37;102341.69;;;13.57;100.00
41862;BME280;27537;57.134;-2.136;2023-05-20T00:14:04;102344.13;;;13.65;100.00
41862;BME280;27537;57.134;-2.136;2023-05-20T00:16:31;102324.97;;;13.60;100.00
41862;BME280;27537;57.134;-2.136;2023-05-20T00:18:58;102343.16;;;13.69;100.00
41862;BME280;27537;57.134;-2.136;2023-05-20T00:21:25;102339.09;;;13.56;100.00
41862;BME280;27537;57.134;-2.136;2023-05-20T00:23:52;102341.38;;;13.70;100.00
41862;BME280;27537;57.134;-2.136;2023-05-20T00:26:19;102335.44;;;13.61;100.00
41862;BME280;27537;57.134;-2.136;2023-05-20T00:28:46;102333.78;;;13.57;100.00
41862;BME280;27537;57.134;-2.136;2023-05-20T00:31:13;102326.84;;;13.55;100.00
41862;BME280;27537;57.134;-2.136;2023-05-20T00:33:40;102318.50;;;13.37;100.00
41862;BME280;27537;57.134;-2.136;2023-05-20T00:36:07;102326.97;;;13.48;100.00
41862;BME280;27537;57.134;-2.136;2023-05-20T00:38:34;102323.81;;;13.34;100.00
41862;BME280;27537;57.134;-2.136;2023-05-20T00:41:01;102313.53;;;13.23;100.00
41862;BME280;27537;57.134;-2.136;2023-05-20T00:43:27;102318.47;;;13.39;100.00
41862;BME280;27537;57.134;-2.136;2023-05-20T00:45:54;102325.31;;;13.46;100.00
41862;BME280;27537;57.134;-2.136;2023-05-20T00:48:21;102290.25;;;13.06;100.00
41862;BME280;27537;57.134;-2.136;2023-05-20T00:50:48;102316.63;;;13.42;100.00
41862;BME280;27537;57.134;-2.136;2023-05-20T00:53:16;102317.41;;;13.46;100.00
41862;BME280;27537;57.134;-2.136;2023-05-20T00:55:46;102305.28;;;13.40;100.00
41862;BME280;27537;57.134;-2.136;2023-05-20T00:58:13;102293.84;;;13.41;100.00
41862;BME280;27537;57.134;-2.136;2023-05-20T01:00:41;102311.25;;;13.45;100.00
41862;BME280;27537;57.134;-2.136;2023-05-20T01:03:08;102299.81;;;13.48;100.00
41862;BME280;27537;57.134;-2.136;2023-05-20T01:05:35;102308.25;;;13.61;100.00
41862;BME280;27537;57.134;-2.136;2023-05-20T01:08:05;102300.66;;;13.48;100.00
41862;BME280;27537;57.134;-2.136;2023-05-20T01:10:33;102301.03;;;13.69;100.00
41862;BME280;27537;57.134;-2.136;2023-05-20T01:13:05;102301.97;;;13.66;100.00
41862;BME280;27537;57.134;-2.136;2023-05-20T01:15:34;102305.72;;;13.56;100.00
41862;BME280;27537;57.134;-2.136;2023-05-20T01:18:02;102292.41;;;13.64;100.00
41862;BME280;27537;57.134;-2.136;2023-05-20T01:20:31;102292.69;;;13.53;100.00
41862;BME280;27537;57.134;-2.136;2023-05-20T01:22:59;102295.28;;;13.55;100.00
41862;BME280;27537;57.134;-2.136;2023-05-20T01:25:25;102276.09;;;13.50;100.00
41862;BME280;27537;57.134;-2.136;2023-05-20T01:27:54;102293.31;;;13.61;100.00
41862;BME280;27537;57.134;-2.136;2023-05-20T01:30:24;102293.44;;;13.58;100.00
41862;BME280;27537;57.134;-2.136;2023-05-20T01:32:58;102292.75;;;13.50;100.00
41862;BME280;27537;57.134;-2.136;2023-05-20T01:35:25;102289.41;;;13.43;100.00
41862;BME280;27537;57.134;-2.136;2023-05-20T01:37:54;102293.63;;;13.49;100.00
41862;BME280;27537;57.134;-2.136;2023-05-20T01:40:22;102297.94;;;13.53;100.00
41862;BME280;27537;57.134;-2.136;2023-05-20T01:42:50;102279.97;;;13.35;100.00
41862;BME280;27537;57.134;-2.136;2023-05-20T01:45:22;102281.78;;;13.33;100.00
41862;BME280;27537;57.134;-2.136;2023-05-20T01:47:50;102271.97;;;13.39;100.00
41862;BME280;27537;57.134;-2.136;2023-05-20T01:50:17;102281.44;;;13.46;100.00
41862;BME280;27537;57.134;-2.136;2023-05-20T01:52:43;102279.69;;;13.45;100.00
41862;BME280;27537;57.134;-2.136;2023-05-20T01:55:10;102258.13;;;13.29;100.00
41862;BME280;27537;57.134;-2.136;2023-05-20T01:57:37;102270.16;;;13.41;100.00
41862;BME280;27537;57.134;-2.136;2023-05-20T02:00:04;102276.25;;;13.43;100.00
41862;BME280;27537;57.134;-2.136;2023-05-20T02:02:32;102270.25;;;13.37;100.00
41862;BME280;27537;57.134;-2.136;2023-05-20T02:04:59;102272.00;;;13.38;100.00
41862;BME280;27537;57.134;-2.136;2023-05-20T02:07:26;102264.13;;;13.36;100.00
41862;BME280;27537;57.134;-2.136;2023-05-20T02:09:52;102262.13;;;13.47;100.00
41862;BME280;27537;57.134;-2.136;2023-05-20T02:12:19;102269.13;;;13.47;100.00
41862;BME280;27537;57.134;-2.136;2023-05-20T02:14:46;102260.69;;;13.34;100.00
41862;BME280;27537;57.134;-2.136;2023-05-20T02:17:13;102272.06;;;13.35;100.00
41862;BME280;27537;57.134;-2.136;2023-05-20T02:19:44;102255.34;;;13.37;100.00
41862;BME280;27537;57.134;-2.136;2023-05-20T02:22:11;102252.19;;;13.23;100.00
41862;BME280;27537;57.134;-2.136;2023-05-20T02:24:38;102256.56;;;13.22;100.00
41862;BME280;27537;57.134;-2.136;2023-05-20T02:27:05;102258.53;;;13.14;100.00
41862;BME280;27537;57.134;-2.136;2023-05-20T02:29:33;102264.63;;;13.15;100.00
41862;BME280;27537;57.134;-2.136;2023-05-20T02:31:59;102247.34;;;13.04;100.00
41862;BME280;27537;57.134;-2.136;2023-05-20T02:34:26;102248.53;;;13.28;100.00
41862;BME280;27537;57.134;-2.136;2023-05-20T02:36:53;102250.22;;;13.31;100.00
41862;BME280;27537;57.134;-2.136;2023-05-20T02:39:20;102243.84;;;13.41;100.00
41862;BME280;27537;57.134;-2.136;2023-05-20T02:41:47;102254.25;;;13.46;100.00
41862;BME280;27537;57.134;-2.136;2023-05-20T02:44:13;102255.13;;;13.46;100.00
41862;BME280;27537;57.134;-2.136;2023-05-20T02:46:41;102252.28;;;13.54;100.00
41862;BME280;27537;57.134;-2.136;2023-05-20T02:49:07;102226.50;;;13.34;100.00
41862;BME280;27537;57.134;-2.136;2023-05-20T02:51:35;102250.47;;;13.56;100.00
41862;BME280;27537;57.134;-2.136;2023-05-20T02:54:02;102249.00;;;13.46;100.00
41862;BME280;27537;57.134;-2.136;2023-05-20T02:56:29;102235.38;;;13.28;100.00
41862;BME280;27537;57.134;-2.136;2023-05-20T02:58:55;102244.16;;;13.27;100.00
41862;BME280;27537;57.134;-2.136;2023-05-20T03:01:22;102236.03;;;13.38;100.00
41862;BME280;27537;57.134;-2.136;2023-05-20T03:03:49;102240.94;;;13.52;100.00
41862;BME280;27537;57.134;-2.136;2023-05-20T03:06:16;102239.66;;;13.34;100.00
41862;BME280;27537;57.134;-2.136;2023-05-20T03:08:43;102237.16;;;13.28;100.00
41862;BME280;27537;57.134;-2.136;2023-05-20T03:11:10;102217.84;;;13.27;100.00
41862;BME280;27537;57.134;-2.136;2023-05-20T03:13:37;102221.19;;;13.36;100.00
41862;BME280;27537;57.134;-2.136;2023-05-20T03:16:04;102235.03;;;13.44;100.00
41862;BME280;27537;57.134;-2.136;2023-05-20T03:18:30;102224.84;;;13.28;100.00
41862;BME280;27537;57.134;-2.136;2023-05-20T03:20:57;102222.88;;;13.38;100.00
41862;BME280;27537;57.134;-2.136;2023-05-20T03:23:24;102219.63;;;13.27;100.00
41862;BME280;27537;57.134;-2.136;2023-05-20T03:25:51;102224.03;;;13.26;100.00
41862;BME280;27537;57.134;-2.136;2023-05-20T03:28:18;102199.72;;;13.17;100.00
41862;BME280;27537;57.134;-2.136;2023-05-20T03:30:44;102194.09;;;12.96;100.00
41862;BME280;27537;57.134;-2.136;2023-05-20T03:33:11;102210.97;;;12.87;100.00
41862;BME280;27537;57.134;-2.136;2023-05-20T03:35:38;102214.38;;;12.91;100.00
41862;BME280;27537;57.134;-2.136;2023-05-20T03:38:05;102217.00;;;12.91;100.00
41862;BME280;27537;57.134;-2.136;2023-05-20T03:40:32;102219.28;;;13.05;100.00
41862;BME280;27537;57.134;-2.136;2023-05-20T03:42:58;102212.00;;;12.80;100.00
41862;BME280;27537;57.134;-2.136;2023-05-20T03:45:25;102211.94;;;12.82;100.00
41862;BME280;27537;57.134;-2.136;2023-05-20T03:47:52;102206.41;;;12.94;100.00
41862;BME280;27537;57.134;-2.136;2023-05-20T03:50:19;102215.84;;;13.01;100.00
41862;BME280;27537;57.134;-2.136;2023-05-20T03:52:45;102213.31;;;12.98;100.00
41862;BME280;27537;57.134;-2.136;2023-05-20T03:55:12;102224.44;;;12.72;100.00
41862;BME280;27537;57.134;-2.136;2023-05-20T03:57:39;102233.44;;;12.62;100.00
41862;BME280;27537;57.134;-2.136;2023-05-20T04:00:06;102222.50;;;12.41;100.00
41862;BME280;27537;57.134;-2.136;2023-05-20T04:02:39;102214.63;;;12.41;100.00
41862;BME280;27537;57.134;-2.136;2023-05-20T04:05:07;102211.03;;;12.45;100.00
41862;BME280;27537;57.134;-2.136;2023-05-20T04:07:35;102212.91;;;12.39;100.00
41862;BME280;27537;57.134;-2.136;2023-05-20T04:10:03;102214.56;;;12.43;100.00
41862;BME280;27537;57.134;-2.136;2023-05-20T04:12:30;102208.06;;;12.61;100.00
41862;BME280;27537;57.134;-2.136;2023-05-20T04:15:00;102192.25;;;12.62;100.00
41862;BME280;27537;57.134;-2.136;2023-05-20T04:17:28;102185.69;;;12.43;100.00
41862;BME280;27537;57.134;-2.136;2023-05-20T04:19:58;102207.34;;;12.54;100.00
41862;BME280;27537;57.134;-2.136;2023-05-20T04:22:25;102205.53;;;12.56;100.00
41862;BME280;27537;57.134;-2.136;2023-05-20T04:24:52;102209.00;;;12.58;100.00
41862;BME280;27537;57.134;-2.136;2023-05-20T04:27:19;102194.00;;;12.62;100.00
41862;BME280;27537;57.134;-2.136;2023-05-20T04:29:47;102192.91;;;12.72;100.00
41862;BME280;27537;57.134;-2.136;2023-05-20T04:32:16;102204.22;;;12.76;100.00
41862;BME280;27537;57.134;-2.136;2023-05-20T04:34:44;102202.53;;;12.73;100.00
41862;BME280;27537;57.134;-2.136;2023-05-20T04:37:12;102205.22;;;12.70;100.00
41862;BME280;27537;57.134;-2.136;2023-05-20T04:39:39;102200.84;;;12.69;100.00
41862;BME280;27537;57.134;-2.136;2023-05-20T04:42:06;102195.59;;;12.69;100.00
41862;BME280;27537;57.134;-2.136;2023-05-20T04:44:32;102202.16;;;12.88;100.00
41862;BME280;27537;57.134;-2.136;2023-05-20T04:46:59;102195.38;;;12.78;100.00
41862;BME280;27537;57.134;-2.136;2023-05-20T04:49:26;102206.84;;;12.76;100.00
41862;BME280;27537;57.134;-2.136;2023-05-20T04:51:55;102207.47;;;12.85;100.00
41862;BME280;27537;57.134;-2.136;2023-05-20T04:54:22;102196.94;;;12.87;100.00
41862;BME280;27537;57.134;-2.136;2023-05-20T04:56:48;102204.81;;;12.87;100.00
41862;BME280;27537;57.134;-2.136;2023-05-20T04:59:16;102202.81;;;12.98;100.00
41862;BME280;27537;57.134;-2.136;2023-05-20T05:01:43;102194.69;;;13.07;100.00
41862;BME280;27537;57.134;-2.136;2023-05-20T05:04:10;102200.63;;;13.16;100.00
41862;BME280;27537;57.134;-2.136;2023-05-20T05:06:37;102194.41;;;13.18;100.00
41862;BME280;27537;57.134;-2.136;2023-05-20T05:09:03;102202.94;;;12.92;100.00
41862;BME280;27537;57.134;-2.136;2023-05-20T05:11:30;102195.09;;;12.90;100.00
41862;BME280;27537;57.134;-2.136;2023-05-20T05:13:57;102189.69;;;12.97;100.00
41862;BME280;27537;57.134;-2.136;2023-05-20T05:16:24;102204.06;;;12.82;100.00
41862;BME280;27537;57.134;-2.136;2023-05-20T05:18:51;102195.34;;;12.80;100.00
41862;BME280;27537;57.134;-2.136;2023-05-20T05:21:17;102184.28;;;12.67;100.00
41862;BME280;27537;57.134;-2.136;2023-05-20T05:23:44;102185.63;;;12.83;100.00
41862;BME280;27537;57.134;-2.136;2023-05-20T05:26:11;102181.13;;;12.88;100.00
41862;BME280;27537;57.134;-2.136;2023-05-20T05:28:40;102187.94;;;12.97;100.00
41862;BME280;27537;57.134;-2.136;2023-05-20T05:31:08;102190.00;;;12.84;100.00
41862;BME280;27537;57.134;-2.136;2023-05-20T05:33:34;102188.47;;;12.74;100.00
41862;BME280;27537;57.134;-2.136;2023-05-20T05:36:01;102184.53;;;12.56;100.00
41862;BME280;27537;57.134;-2.136;2023-05-20T05:38:30;102180.19;;;12.53;100.00
41862;BME280;27537;57.134;-2.136;2023-05-20T05:40:57;102186.03;;;12.66;100.00
41862;BME280;27537;57.134;-2.136;2023-05-20T05:43:23;102178.00;;;12.72;100.00
41862;BME280;27537;57.134;-2.136;2023-05-20T05:45:50;102163.41;;;12.61;100.00
41862;BME280;27537;57.134;-2.136;2023-05-20T05:48:17;102189.97;;;12.86;100.00
41862;BME280;27537;57.134;-2.136;2023-05-20T05:50:44;102189.16;;;12.82;100.00
41862;BME280;27537;57.134;-2.136;2023-05-20T05:53:12;102191.66;;;12.87;100.00
41862;BME280;27537;57.134;-2.136;2023-05-20T05:55:38;102198.38;;;13.00;100.00
41862;BME280;27537;57.134;-2.136;2023-05-20T05:58:05;102186.44;;;12.85;100.00
41862;BME280;27537;57.134;-2.136;2023-05-20T06:00:32;102184.47;;;12.95;100.00
41862;BME280;27537;57.134;-2.136;2023-05-20T06:02:59;102199.78;;;12.78;100.00
41862;BME280;27537;57.134;-2.136;2023-05-20T06:05:27;102194.22;;;12.90;100.00
41862;BME280;27537;57.134;-2.136;2023-05-20T06:07:55;102199.78;;;13.14;100.00
41862;BME280;27537;57.134;-2.136;2023-05-20T06:10:22;102186.72;;;13.10;100.00
41862;BME280;27537;57.134;-2.136;2023-05-20T06:12:49;102199.41;;;13.29;100.00
41862;BME280;27537;57.134;-2.136;2023-05-20T06:15:16;102186.00;;;13.40;100.00
41862;BME280;27537;57.134;-2.136;2023-05-20T06:17:42;102165.34;;;13.24;100.00
41862;BME280;27537;57.134;-2.136;2023-05-20T06:20:10;102186.81;;;13.42;100.00
41862;BME280;27537;57.134;-2.136;2023-05-20T06:22:37;102189.94;;;13.56;100.00
41862;BME280;27537;57.134;-2.136;2023-05-20T06:25:04;102188.94;;;13.62;100.00
41862;BME280;27537;57.134;-2.136;2023-05-20T06:27:31;102177.03;;;13.47;100.00
41862;BME280;27537;57.134;-2.136;2023-05-20T06:29:58;102183.97;;;13.51;100.00
41862;BME280;27537;57.134;-2.136;2023-05-20T06:32:26;102186.16;;;13.35;100.00
41862;BME280;27537;57.134;-2.136;2023-05-20T06:34:53;102183.31;;;13.43;100.00
41862;BME280;27537;57.134;-2.136;2023-05-20T06:37:19;102172.38;;;13.58;100.00
41862;BME280;27537;57.134;-2.136;2023-05-20T06:39:51;102169.91;;;13.83;100.00
41862;BME280;27537;57.134;-2.136;2023-05-20T06:42:19;102180.41;;;13.85;100.00
41862;BME280;27537;57.134;-2.136;2023-05-20T06:44:47;102172.19;;;13.64;100.00
41862;BME280;27537;57.134;-2.136;2023-05-20T06:47:15;102169.44;;;13.69;100.00
41862;BME280;27537;57.134;-2.136;2023-05-20T06:49:45;102174.09;;;13.91;100.00
41862;BME280;27537;57.134;-2.136;2023-05-20T06:52:13;102178.34;;;13.95;100.00
41862;BME280;27537;57.134;-2.136;2023-05-20T06:54:40;102173.75;;;14.03;100.00
41862;BME280;27537;57.134;-2.136;2023-05-20T06:57:07;102178.50;;;14.20;100.00
41862;BME280;27537;57.134;-2.136;2023-05-20T06:59:35;102167.97;;;14.20;100.00
41862;BME280;27537;57.134;-2.136;2023-05-20T07:02:03;102178.00;;;14.07;100.00
41862;BME280;27537;57.134;-2.136;2023-05-20T07:04:30;102166.22;;;14.20;100.00
41862;BME280;27537;57.134;-2.136;2023-05-20T07:06:56;102178.28;;;14.28;100.00
41862;BME280;27537;57.134;-2.136;2023-05-20T07:09:23;102178.41;;;14.23;100.00
41862;BME280;27537;57.134;-2.136;2023-05-20T07:11:50;102183.72;;;14.21;100.00
41862;BME280;27537;57.134;-2.136;2023-05-20T07:14:17;102178.25;;;14.29;100.00
41862;BME280;27537;57.134;-2.136;2023-05-20T07:16:43;102182.53;;;14.32;100.00
41862;BME280;27537;57.134;-2.136;2023-05-20T07:19:10;102181.44;;;14.39;100.00
41862;BME280;27537;57.134;-2.136;2023-05-20T07:21:37;102182.53;;;14.32;100.00
41862;BME280;27537;57.134;-2.136;2023-05-20T07:24:04;102192.16;;;14.34;100.00
41862;BME280;27537;57.134;-2.136;2023-05-20T07:26:31;102187.09;;;14.27;100.00
41862;BME280;27537;57.134;-2.136;2023-05-20T07:29:02;102192.31;;;14.28;100.00
41862;BME280;27537;57.134;-2.136;2023-05-20T07:31:29;102182.47;;;14.35;100.00
41862;BME280;27537;57.134;-2.136;2023-05-20T07:33:57;102172.56;;;14.43;100.00
41862;BME280;27537;57.134;-2.136;2023-05-20T07:36:26;102174.19;;;14.47;100.00
41862;BME280;27537;57.134;-2.136;2023-05-20T07:38:53;102170.19;;;14.64;100.00
41862;BME280;27537;57.134;-2.136;2023-05-20T07:41:30;102181.22;;;14.47;100.00
41862;BME280;27537;57.134;-2.136;2023-05-20T07:43:57;102165.94;;;14.30;100.00
41862;BME280;27537;57.134;-2.136;2023-05-20T07:46:24;102167.81;;;14.54;100.00
41862;BME280;27537;57.134;-2.136;2023-05-20T07:48:50;102170.56;;;14.50;100.00
41862;BME280;27537;57.134;-2.136;2023-05-20T07:51:17;102165.25;;;14.51;100.00
41862;BME280;27537;57.134;-2.136;2023-05-20T07:53:44;102163.38;;;14.55;100.00
41862;BME280;27537;57.134;-2.136;2023-05-20T07:56:11;102172.31;;;14.51;100.00
41862;BME280;27537;57.134;-2.136;2023-05-20T07:58:40;102174.78;;;14.55;100.00
41862;BME280;27537;57.134;-2.136;2023-05-20T08:01:08;102180.91;;;14.86;100.00
41862;BME280;27537;57.134;-2.136;2023-05-20T08:03:35;102188.38;;;14.71;100.00
41862;BME280;27537;57.134;-2.136;2023-05-20T08:06:02;102178.16;;;14.89;100.00
41862;BME280;27537;57.134;-2.136;2023-05-20T08:08:29;102184.53;;;14.81;100.00
41862;BME280;27537;57.134;-2.136;2023-05-20T08:10:56;102189.31;;;14.70;100.00
41862;BME280;27537;57.134;-2.136;2023-05-20T08:13:24;102189.94;;;15.05;100.00
41862;BME280;27537;57.134;-2.136;2023-05-20T08:15:52;102164.31;;;14.82;100.00
41862;BME280;27537;57.134;-2.136;2023-05-20T08:18:20;102188.06;;;14.82;100.00
41862;BME280;27537;57.134;-2.136;2023-05-20T08:20:47;102191.09;;;14.96;100.00
41862;BME280;27537;57.134;-2.136;2023-05-20T08:23:13;102189.31;;;14.97;100.00
41862;BME280;27537;57.134;-2.136;2023-05-20T08:25:40;102182.19;;;14.72;100.00
41862;BME280;27537;57.134;-2.136;2023-05-20T08:28:07;102181.25;;;15.02;100.00
41862;BME280;27537;57.134;-2.136;2023-05-20T08:30:34;102179.56;;;14.72;100.00
41862;BME280;27537;57.134;-2.136;2023-05-20T08:33:00;102165.25;;;15.06;100.00
41862;BME280;27537;57.134;-2.136;2023-05-20T08:35:27;102168.84;;;15.05;100.00
41862;BME280;27537;57.134;-2.136;2023-05-20T08:37:54;102178.22;;;15.14;100.00
41862;BME280;27537;57.134;-2.136;2023-05-20T08:40:21;102164.09;;;14.88;100.00
41862;BME280;27537;57.134;-2.136;2023-05-20T08:42:49;102173.19;;;14.79;100.00
41862;BME280;27537;57.134;-2.136;2023-05-20T08:45:19;102176.88;;;14.74;100.00
41862;BME280;27537;57.134;-2.136;2023-05-20T08:47:47;102167.91;;;14.79;100.00
41862;BME280;27537;57.134;-2.136;2023-05-20T08:50:15;102174.78;;;14.84;100.00
41862;BME280;27537;57.134;-2.136;2023-05-20T08:52:44;102174.03;;;14.80;100.00
41862;BME280;27537;57.134;-2.136;2023-05-20T08:55:17;102167.41;;;14.68;100.00
41862;BME280;27537;57.134;-2.136;2023-05-20T08:57:49;102182.22;;;14.99;100.00
41862;BME280;27537;57.134;-2.136;2023-05-20T09:00:17;102180.19;;;15.07;100.00
41862;BME280;27537;57.134;-2.136;2023-05-20T09:02:45;102168.63;;;14.85;100.00
41862;BME280;27537;57.134;-2.136;2023-05-20T09:05:12;102173.53;;;14.95;100.00
41862;BME280;27537;57.134;-2.136;2023-05-20T09:07:40;102177.75;;;14.74;100.00
41862;BME280;27537;57.134;-2.136;2023-05-20T09:10:09;102179.63;;;14.41;100.00
41862;BME280;27537;57.134;-2.136;2023-05-20T09:12:36;102177.66;;;14.77;100.00
41862;BME280;27537;57.134;-2.136;2023-05-20T09:15:04;102177.09;;;14.94;100.00
41862;BME280;27537;57.134;-2.136;2023-05-20T09:17:35;102183.22;;;14.68;100.00
41862;BME280;27537;57.134;-2.136;2023-05-20T09:20:07;102185.03;;;14.66;100.00
41862;BME280;27537;57.134;-2.136;2023-05-20T09:22:34;102179.59;;;14.71;100.00
41862;BME280;27537;57.134;-2.136;2023-05-20T09:25:01;102183.91;;;15.02;100.00
41862;BME280;27537;57.134;-2.136;2023-05-20T09:27:27;102185.78;;;15.25;100.00
41862;BME280;27537;57.134;-2.136;2023-05-20T09:29:54;102174.69;;;15.13;100.00
41862;BME280;27537;57.134;-2.136;2023-05-20T09:32:21;102179.47;;;15.54;100.00
41862;BME280;27537;57.134;-2.136;2023-05-20T09:34:53;102171.22;;;15.38;100.00
41862;BME280;27537;57.134;-2.136;2023-05-20T09:37:21;102173.03;;;15.61;100.00
41862;BME280;27537;57.134;-2.136;2023-05-20T09:39:54;102172.63;;;15.48;100.00
41862;BME280;27537;57.134;-2.136;2023-05-20T09:42:39;102174.59;;;15.42;100.00
41862;BME280;27537;57.134;-2.136;2023-05-20T09:45:07;102166.59;;;15.45;100.00
41862;BME280;27537;57.134;-2.136;2023-05-20T09:47:38;102156.06;;;15.68;100.00
41862;BME280;27537;57.134;-2.136;2023-05-20T09:50:08;102154.19;;;15.47;100.00
41862;BME280;27537;57.134;-2.136;2023-05-20T09:52:36;102150.72;;;15.70;100.00
41862;BME280;27537;57.134;-2.136;2023-05-20T09:55:07;102148.69;;;16.02;100.00
41862;BME280;27537;57.134;-2.136;2023-05-20T09:57:36;102149.06;;;15.92;100.00
41862;BME280;27537;57.134;-2.136;2023-05-20T10:00:04;102146.16;;;15.99;100.00
41862;BME280;27537;57.134;-2.136;2023-05-20T10:02:34;102132.25;;;15.93;100.00
41862;BME280;27537;57.134;-2.136;2023-05-20T10:05:05;102138.72;;;16.32;100.00
41862;BME280;27537;57.134;-2.136;2023-05-20T10:21:17;102135.16;;;16.33;100.00
41862;BME280;27537;57.134;-2.136;2023-05-20T10:23:44;102118.31;;;16.58;100.00
41862;BME280;27537;57.134;-2.136;2023-05-20T10:26:11;102123.56;;;16.59;100.00
41862;BME280;27537;57.134;-2.136;2023-05-20T10:28:39;102130.59;;;16.59;100.00
41862;BME280;27537;57.134;-2.136;2023-05-20T10:31:20;102123.06;;;16.72;100.00
41862;BME280;27537;57.134;-2.136;2023-05-20T10:33:48;102124.00;;;16.69;100.00
41862;BME280;27537;57.134;-2.136;2023-05-20T10:36:28;102125.31;;;16.59;100.00
41862;BME280;27537;57.134;-2.136;2023-05-20T10:38:59;102129.56;;;16.85;100.00
41862;BME280;27537;57.134;-2.136;2023-05-20T10:41:36;102123.41;;;16.62;100.00
41862;BME280;27537;57.134;-2.136;2023-05-20T10:44:10;102115.75;;;16.99;100.00
41862;BME280;27537;57.134;-2.136;2023-05-20T10:46:37;102101.56;;;16.79;100.00
41862;BME280;27537;57.134;-2.136;2023-05-20T10:49:32;102110.34;;;17.02;100.00
41862;BME280;27537;57.134;-2.136;2023-05-20T10:52:00;102110.34;;;16.80;100.00
41862;BME280;27537;57.134;-2.136;2023-05-20T10:54:26;102106.72;;;16.82;100.00
41862;BME280;27537;57.134;-2.136;2023-05-20T10:56:54;102094.69;;;16.75;100.00
41862;BME280;27537;57.134;-2.136;2023-05-20T10:59:21;102105.56;;;16.67;100.00
41862;BME280;27537;57.134;-2.136;2023-05-20T11:01:49;102102.34;;;16.81;100.00
41862;BME280;27537;57.134;-2.136;2023-05-20T11:04:16;102099.56;;;16.86;100.00
41862;BME280;27537;57.134;-2.136;2023-05-20T11:06:52;102076.97;;;16.77;100.00
41862;BME280;27537;57.134;-2.136;2023-05-20T11:09:20;102106.91;;;16.78;100.00
41862;BME280;27537;57.134;-2.136;2023-05-20T11:11:52;102093.94;;;16.94;100.00
41862;BME280;27537;57.134;-2.136;2023-05-20T11:14:20;102089.69;;;17.31;100.00
41862;BME280;27537;57.134;-2.136;2023-05-20T11:16:51;102095.84;;;16.90;100.00
41862;BME280;27537;57.134;-2.136;2023-05-20T11:19:19;102086.19;;;17.10;100.00
41862;BME280;27537;57.134;-2.136;2023-05-20T11:21:47;102093.19;;;17.31;100.00
41862;BME280;27537;57.134;-2.136;2023-05-20T11:24:25;102094.50;;;17.41;100.00
41862;BME280;27537;57.134;-2.136;2023-05-20T11:26:54;102080.88;;;17.30;100.00
41862;BME280;27537;57.134;-2.136;2023-05-20T11:29:25;102076.03;;;17.40;100.00
41862;BME280;27537;57.134;-2.136;2023-05-20T11:31:52;102078.19;;;17.32;100.00
41862;BME280;27537;57.134;-2.136;2023-05-20T11:34:21;102067.44;;;17.35;100.00
41862;BME280;27537;57.134;-2.136;2023-05-20T11:36:55;102080.34;;;17.61;100.00
41862;BME280;27537;57.134;-2.136;2023-05-20T11:39:24;102082.28;;;17.58;100.00
41862;BME280;27537;57.134;-2.136;2023-05-20T11:41:53;102079.78;;;17.74;100.00
41862;BME280;27537;57.134;-2.136;2023-05-20T11:44:19;102084.91;;;17.58;100.00
41862;BME280;27537;57.134;-2.136;2023-05-20T11:46:47;102089.00;;;17.84;100.00
41862;BME280;27537;57.134;-2.136;2023-05-20T11:49:14;102085.81;;;17.96;100.00
41862;BME280;27537;57.134;-2.136;2023-05-20T11:51:42;102084.47;;;17.88;100.00
41862;BME280;27537;57.134;-2.136;2023-05-20T11:54:09;102071.78;;;17.94;100.00
41862;BME280;27537;57.134;-2.136;2023-05-20T11:56:37;102072.84;;;18.09;100.00
41862;BME280;27537;57.134;-2.136;2023-05-20T11:59:05;102073.19;;;18.20;100.00
41862;BME280;27537;57.134;-2.136;2023-05-20T12:01:38;102071.91;;;18.10;100.00
41862;BME280;27537;57.134;-2.136;2023-05-20T12:04:09;102068.19;;;18.14;100.00
41862;BME280;27537;57.134;-2.136;2023-05-20T12:06:37;102075.69;;;18.24;100.00
41862;BME280;27537;57.134;-2.136;2023-05-20T12:09:06;102074.94;;;18.02;100.00
41862;BME280;27537;57.134;-2.136;2023-05-20T12:11:35;102081.56;;;18.11;100.00
41862;BME280;27537;57.134;-2.136;2023-05-20T12:14:03;102068.69;;;18.23;100.00
41862;BME280;27537;57.134;-2.136;2023-05-20T12:16:31;102063.47;;;17.64;100.00
41862;BME280;27537;57.134;-2.136;2023-05-20T12:18:59;102058.88;;;17.68;100.00
41862;BME280;27537;57.134;-2.136;2023-05-20T12:21:29;102060.94;;;17.42;100.00
41862;BME280;27537;57.134;-2.136;2023-05-20T12:24:00;102056.72;;;17.57;100.00
41862;BME280;27537;57.134;-2.136;2023-05-20T12:26:28;102057.72;;;17.54;100.00
41862;BME280;27537;57.134;-2.136;2023-05-20T12:28:56;102045.03;;;17.42;100.00
41862;BME280;27537;57.134;-2.136;2023-05-20T12:31:23;102046.97;;;17.38;100.00
41862;BME280;27537;57.134;-2.136;2023-05-20T12:33:50;102039.69;;;17.04;100.00
41862;BME280;27537;57.134;-2.136;2023-05-20T12:36:17;102024.97;;;16.76;100.00
41862;BME280;27537;57.134;-2.136;2023-05-20T12:38:45;102038.66;;;16.87;100.00
41862;BME280;27537;57.134;-2.136;2023-05-20T12:41:12;102020.75;;;16.93;100.00
41862;BME280;27537;57.134;-2.136;2023-05-20T12:43:39;102019.13;;;16.90;100.00
41862;BME280;27537;57.134;-2.136;2023-05-20T12:46:06;102024.25;;;16.73;100.00
41862;BME280;27537;57.134;-2.136;2023-05-20T12:48:32;102019.50;;;17.01;100.00